Time;durP1;ratioP1;P1;durP2;ratioP2;P2;SDS_P1;SDS_P2;PMS_P1;PMS_P2;Temp;Humidity;BMP_temperature;BMP_pressure;BME280_temperature;BME280_humidity;BME280_pressure;Samples;Min_cycle;Max_cycle;Signal;HPM_P1;HPM_P2
2022/01/23 00:00:55;;;;;;;7.53;4.57;;;4.70;99.90;;;;;;5033699;28;20414;-75
2022/01/23 00:03:21;;;;;;;6.63;3.73;;;4.60;99.90;;;;;;5032783;28;20406;-75
2022/01/23 00:05:50;;;;;;;12.10;4.60;;;4.70;99.90;;;;;;5033956;28;20429;-75
2022/01/23 00:08:20;;;;;;;5.27;4.03;;;4.70;99.90;;;;;;5036065;28;20477;-75
2022/01/23 00:10:46;;;;;;;6.00;3.93;;;4.70;99.90;;;;;;5015913;28;20638;-75
2022/01/23 00:13:23;;;;;;;6.13;3.67;;;4.70;99.90;;;;;;5033115;28;20437;-75
2022/01/23 00:18:33;;;;;;;5.97;3.93;;;4.80;99.90;;;;;;5033978;28;20412;-75
2022/01/23 00:20:59;;;;;;;6.57;4.63;;;4.90;99.90;;;;;;5034575;28;20418;-74
2022/01/23 00:23:32;;;;;;;9.10;4.20;;;4.90;99.90;;;;;;5034043;28;20406;-75
2022/01/23 00:31:28;;;;;;;5.67;3.73;;;4.90;99.90;;;;;;5035752;28;20414;-76
2022/01/23 00:33:54;;;;;;;3.97;3.57;;;4.90;99.90;;;;;;5033910;28;20418;-74
2022/01/23 00:36:21;;;;;;;3.20;2.73;;;4.90;99.90;;;;;;5012461;28;20494;-74
2022/01/23 00:38:47;;;;;;;6.30;3.73;;;4.80;99.90;;;;;;5013160;28;20408;-74
2022/01/23 00:41:12;;;;;;;6.23;4.83;;;4.90;99.90;;;;;;5013005;28;20415;-74
2022/01/23 00:43:41;;;;;;;6.13;4.87;;;4.90;99.90;;;;;;5014210;28;20598;-75
2022/01/23 00:46:22;;;;;;;3.67;2.90;;;4.90;99.90;;;;;;5032115;28;20172;-75
2022/01/23 00:51:33;;;;;;;5.67;3.80;;;5.00;99.90;;;;;;5032298;28;20544;-74
2022/01/23 00:54:00;;;;;;;9.60;4.93;;;5.00;99.90;;;;;;5031864;28;20996;-74
2022/01/23 00:56:26;;;;;;;5.50;3.97;;;5.00;99.90;;;;;;5031881;28;20403;-74
2022/01/23 00:58:52;;;;;;;4.77;3.03;;;5.00;99.90;;;;;;5032010;28;20409;-75
2022/01/23 01:01:18;;;;;;;6.67;6.10;;;4.90;99.90;;;;;;5032100;28;20217;-74
2022/01/23 01:03:44;;;;;;;5.13;4.10;;;4.90;99.90;;;;;;5031713;28;20184;-75
2022/01/23 01:06:10;;;;;;;4.27;3.73;;;5.00;99.90;;;;;;5031735;28;20401;-75
2022/01/23 01:08:36;;;;;;;6.10;3.07;;;4.90;99.90;;;;;;5032048;28;20531;-75
2022/01/23 01:13:56;;;;;;;4.53;3.33;;;5.00;99.90;;;;;;5032728;28;20175;-75
2022/01/23 01:32:59;;;;;;;3.47;2.37;;;5.10;99.90;;;;;;5031727;28;20406;-75
2022/01/23 01:35:40;;;;;;;6.77;3.40;;;5.00;99.90;;;;;;5031360;28;20426;-75
2022/01/23 01:38:06;;;;;;;5.67;2.27;;;5.10;99.90;;;;;;5031755;28;20403;-75
2022/01/23 01:40:32;;;;;;;4.27;2.83;;;5.10;99.90;;;;;;5035410;28;20406;-74
2022/01/23 01:42:57;;;;;;;5.07;4.30;;;5.20;99.90;;;;;;5035628;28;20422;-75
2022/01/23 01:45:28;;;;;;;4.13;2.30;;;5.10;99.90;;;;;;5035364;28;20476;-75
2022/01/23 01:47:56;;;;;;;2.13;1.70;;;5.20;99.90;;;;;;5035679;28;20677;-75
2022/01/23 01:50:23;;;;;;;2.20;1.33;;;5.20;99.90;;;;;;5035765;28;20926;-75
2022/01/23 01:52:49;;;;;;;3.70;1.90;;;5.20;99.90;;;;;;5035435;28;20928;-75
2022/01/23 01:55:21;;;;;;;3.33;2.57;;;5.20;99.90;;;;;;5035230;28;20453;-74
2022/01/23 01:57:53;;;;;;;4.03;2.37;;;5.20;99.90;;;;;;5035663;28;20403;-75
2022/01/23 02:00:41;;;;;;;3.87;2.90;;;5.10;99.90;;;;;;5035283;28;20429;-74
2022/01/23 02:03:25;;;;;;;2.80;1.90;;;5.20;99.90;;;;;;5034042;28;20417;-74
2022/01/23 02:08:38;;;;;;;1.50;1.40;;;5.20;99.90;;;;;;5035604;28;20459;-74
2022/01/23 02:11:13;;;;;;;3.80;2.43;;;5.20;99.90;;;;;;5034979;28;20824;-74
2022/01/23 02:13:48;;;;;;;3.20;2.77;;;5.20;99.90;;;;;;5035187;28;20409;-74
2022/01/23 02:52:09;;;;;;;2.70;2.20;;;5.30;99.90;;;;;;5033612;28;20774;-75
2022/01/23 02:54:54;;;;;;;2.60;1.90;;;5.30;99.90;;;;;;5034402;28;20442;-74
2022/01/23 02:57:33;;;;;;;1.73;1.63;;;5.30;99.90;;;;;;5016602;28;20422;-74
2022/01/23 02:59:59;;;;;;;3.87;1.80;;;5.20;99.90;;;;;;5032864;28;20406;-76
2022/01/23 03:02:41;;;;;;;3.07;2.77;;;5.20;99.90;;;;;;5034073;28;20486;-75
2022/01/23 03:05:12;;;;;;;3.43;2.20;;;5.20;99.90;;;;;;5034184;28;20513;-75
2022/01/23 03:07:57;;;;;;;3.20;1.53;;;5.30;99.90;;;;;;5034047;28;20450;-74
2022/01/23 03:10:30;;;;;;;3.03;2.83;;;5.20;99.90;;;;;;5034416;28;20825;-75
2022/01/23 03:13:38;;;;;;;2.83;1.70;;;5.20;99.90;;;;;;5034137;28;20990;-74
2022/01/23 03:16:14;;;;;;;2.30;2.10;;;5.20;99.90;;;;;;5033651;28;20434;-75
2022/01/23 03:24:20;;;;;;;2.83;2.50;;;5.20;99.90;;;;;;5034171;28;20468;-74
2022/01/23 03:27:02;;;;;;;1.87;1.77;;;5.20;99.90;;;;;;5033746;28;20406;-76
2022/01/23 03:29:49;;;;;;;3.00;2.00;;;5.20;99.90;;;;;;5034037;28;20464;-74
2022/01/23 03:32:21;;;;;;;6.13;2.80;;;5.20;99.90;;;;;;5033567;28;20480;-74
2022/01/23 03:34:47;;;;;;;3.30;2.73;;;5.20;99.90;;;;;;5015734;28;20430;-74
2022/01/23 03:37:12;;;;;;;4.63;2.00;;;5.20;99.90;;;;;;5033536;28;20399;-75
2022/01/23 03:39:38;;;;;;;3.57;1.93;;;5.20;99.90;;;;;;5033508;28;20222;-75
2022/01/23 03:42:04;;;;;;;1.80;1.70;;;5.20;99.90;;;;;;5033510;28;20164;-75
2022/01/23 03:44:29;;;;;;;2.83;1.80;;;5.20;99.90;;;;;;5015526;28;20195;-75
2022/01/23 03:47:13;;;;;;;4.40;2.33;;;5.20;99.90;;;;;;5033480;28;20398;-74
2022/01/23 03:49:39;;;;;;;3.90;2.10;;;5.20;99.90;;;;;;5033216;28;20171;-74
2022/01/23 03:52:07;;;;;;;3.60;2.20;;;5.20;99.90;;;;;;5033302;28;20931;-75
2022/01/23 03:54:33;;;;;;;4.60;1.40;;;5.20;99.90;;;;;;5033129;28;20272;-73
2022/01/23 03:57:01;;;;;;;3.40;2.47;;;5.10;99.90;;;;;;5033378;28;20398;-75
2022/01/23 03:59:27;;;;;;;3.17;1.87;;;5.20;99.90;;;;;;5033474;28;20410;-75
2022/01/23 04:01:52;;;;;;;4.57;3.30;;;5.10;99.90;;;;;;5032976;28;20410;-74
2022/01/23 04:04:38;;;;;;;3.10;2.40;;;5.20;99.90;;;;;;5032789;28;20927;-74
2022/01/23 04:07:17;;;;;;;2.03;1.43;;;5.10;99.90;;;;;;5033106;28;20438;-75
2022/01/23 04:09:44;;;;;;;4.50;1.70;;;5.10;99.90;;;;;;5033008;28;20421;-75
2022/01/23 04:12:20;;;;;;;3.50;2.10;;;5.20;99.90;;;;;;5032832;28;20410;-75
2022/01/23 04:14:51;;;;;;;2.50;2.30;;;5.20;99.90;;;;;;5032848;28;20796;-74
2022/01/23 05:00:50;;;;;;;1.90;1.73;;;5.20;99.90;;;;;;5032174;28;20464;-75
2022/01/23 05:03:54;;;;;;;2.67;2.43;;;5.20;99.90;;;;;;5032067;28;20437;-74
2022/01/23 05:06:04;;;;;;;4.00;2.40;;;5.10;99.90;;;;;;5031798;28;20410;-74
2022/01/23 05:08:33;;;;;;;1.80;1.70;;;5.20;99.90;;;;;;5027214;28;20462;-74
2022/01/23 05:11:00;;;;;;;4.40;2.40;;;5.10;99.90;;;;;;5030289;28;20426;-74
2022/01/23 05:13:27;;;;;;;3.57;1.93;;;5.10;99.90;;;;;;5019690;28;20420;-74
2022/01/23 05:15:53;;;;;;;3.80;2.07;;;5.10;99.90;;;;;;5011837;28;20458;-73
2022/01/23 05:18:19;;;;;;;3.97;2.80;;;5.10;99.90;;;;;;5013558;28;20415;-74
2022/01/23 05:20:47;;;;;;;5.23;2.70;;;5.10;99.90;;;;;;5012391;28;20175;-75
2022/01/23 05:23:12;;;;;;;4.60;3.23;;;5.00;99.90;;;;;;5012388;28;20422;-75
2022/01/23 05:25:39;;;;;;;3.03;1.87;;;5.10;99.90;;;;;;5012981;28;20811;-75
2022/01/23 05:28:06;;;;;;;2.20;2.00;;;5.10;99.90;;;;;;5012379;28;20199;-75
2022/01/23 05:30:32;;;;;;;1.80;1.70;;;5.10;99.90;;;;;;5012242;28;20409;-74
2022/01/23 05:32:59;;;;;;;2.57;2.10;;;5.00;99.90;;;;;;5011953;28;20411;-73
2022/01/23 05:35:27;;;;;;;4.00;2.30;;;5.10;99.90;;;;;;5011893;28;20273;-74
2022/01/23 05:37:53;;;;;;;3.60;2.70;;;5.00;99.90;;;;;;5012044;28;21162;-73
2022/01/23 05:40:20;;;;;;;3.70;1.97;;;5.10;99.90;;;;;;5012002;28;20415;-74
2022/01/23 05:42:46;;;;;;;3.20;2.50;;;5.10;99.90;;;;;;5012887;28;20230;-74
2022/01/23 05:45:11;;;;;;;2.63;2.10;;;5.00;99.90;;;;;;5012042;28;20932;-74
2022/01/23 05:47:37;;;;;;;3.27;1.87;;;5.10;99.90;;;;;;5013229;28;20200;-75
2022/01/23 05:50:04;;;;;;;3.93;3.13;;;5.10;99.90;;;;;;5012786;28;20172;-74
2022/01/23 05:52:31;;;;;;;2.50;2.13;;;5.10;99.90;;;;;;4995091;28;20658;-74
2022/01/23 05:54:57;;;;;;;3.60;2.27;;;5.10;99.90;;;;;;5012659;28;20446;-73
2022/01/23 05:57:22;;;;;;;3.03;1.50;;;5.10;99.90;;;;;;5012080;28;20403;-74
2022/01/23 05:59:48;;;;;;;5.97;2.87;;;5.10;99.90;;;;;;5016051;28;20413;-74
2022/01/23 06:02:13;;;;;;;3.87;2.47;;;5.10;99.90;;;;;;5031910;28;20276;-74
2022/01/23 06:04:39;;;;;;;4.50;2.40;;;5.10;99.90;;;;;;5031879;28;20195;-74
2022/01/23 06:07:04;;;;;;;3.43;2.37;;;5.10;99.90;;;;;;5031803;28;20159;-74
2022/01/23 06:09:30;;;;;;;3.03;2.23;;;5.20;99.90;;;;;;5031550;28;20242;-74
2022/01/23 06:11:55;;;;;;;4.90;3.77;;;5.10;99.90;;;;;;5031320;28;20195;-73
2022/01/23 06:14:21;;;;;;;7.27;3.30;;;5.10;99.90;;;;;;5031225;28;20659;-73
2022/01/23 06:16:47;;;;;;;4.63;2.67;;;5.10;99.90;;;;;;5031016;28;20705;-73
2022/01/23 06:19:13;;;;;;;4.90;2.83;;;5.10;99.90;;;;;;5031206;28;20548;-73
2022/01/23 06:21:39;;;;;;;5.13;3.13;;;5.10;99.90;;;;;;5031246;28;20418;-73
2022/01/23 06:24:08;;;;;;;4.77;2.70;;;5.10;99.90;;;;;;5029877;28;21070;-73
2022/01/23 06:26:48;;;;;;;2.83;2.47;;;5.30;99.90;;;;;;5033202;28;20749;-74
2022/01/23 06:29:16;;;;;;;4.37;2.77;;;5.70;99.90;;;;;;5034898;28;20544;-74
2022/01/23 06:31:42;;;;;;;3.27;1.87;;;5.40;99.90;;;;;;5034751;28;20491;-73
2022/01/23 06:34:09;;;;;;;4.27;2.90;;;5.70;99.90;;;;;;5034631;28;20414;-73
2022/01/23 06:36:36;;;;;;;4.30;1.93;;;5.80;99.90;;;;;;5034646;28;20406;-74
2022/01/23 06:39:04;;;;;;;2.80;2.57;;;5.80;99.90;;;;;;5034889;28;20407;-74
2022/01/23 06:41:29;;;;;;;2.37;2.17;;;5.70;99.90;;;;;;5034560;28;20398;-73
2022/01/23 06:43:55;;;;;;;2.90;2.60;;;5.50;99.90;;;;;;5034515;28;20433;-75
2022/01/23 06:46:20;;;;;;;3.13;2.70;;;5.50;99.90;;;;;;5034431;28;20182;-74
2022/01/23 06:48:46;;;;;;;4.20;2.80;;;5.60;99.90;;;;;;5034462;28;20203;-74
2022/01/23 06:51:11;;;;;;;5.40;2.40;;;5.50;99.90;;;;;;5034604;28;20163;-74
2022/01/23 06:53:37;;;;;;;5.33;3.93;;;5.70;99.90;;;;;;5034204;28;20542;-73
2022/01/23 06:56:02;;;;;;;2.80;2.20;;;5.60;99.90;;;;;;5034222;28;20168;-74
2022/01/23 06:58:28;;;;;;;2.50;2.10;;;5.60;99.90;;;;;;5034369;28;20226;-74
2022/01/23 07:00:53;;;;;;;3.27;2.73;;;5.70;99.90;;;;;;5034316;28;20214;-75
2022/01/23 07:03:19;;;;;;;3.80;2.50;;;5.70;99.90;;;;;;5034271;28;20168;-73
2022/01/23 07:05:44;;;;;;;3.13;2.60;;;5.50;99.90;;;;;;5033983;28;20208;-72
2022/01/23 07:08:10;;;;;;;3.73;2.60;;;5.60;99.90;;;;;;5033937;28;20265;-74
2022/01/23 07:10:35;;;;;;;4.60;3.10;;;5.50;99.90;;;;;;5034098;28;20202;-73
2022/01/23 07:13:01;;;;;;;6.03;2.90;;;5.70;99.90;;;;;;5016165;28;20259;-75
2022/01/23 07:15:26;;;;;;;3.10;2.73;;;6.00;99.90;;;;;;5033928;28;20220;-73
2022/01/23 07:17:52;;;;;;;2.87;2.50;;;5.50;99.90;;;;;;5033826;28;20217;-74
2022/01/23 07:20:17;;;;;;;3.13;1.90;;;5.30;99.90;;;;;;5034161;28;20249;-73
2022/01/23 07:22:43;;;;;;;6.00;4.37;;;5.30;99.90;;;;;;5034124;28;20246;-75
2022/01/23 07:25:09;;;;;;;5.50;3.17;;;5.30;99.90;;;;;;5033770;28;20187;-74
2022/01/23 07:27:39;;;;;;;4.83;2.20;;;5.30;99.90;;;;;;5033795;28;20187;-74
2022/01/23 07:30:09;;;;;;;3.13;2.50;;;5.40;99.90;;;;;;5033974;28;20214;-73
2022/01/23 07:32:34;;;;;;;5.07;3.33;;;5.30;99.90;;;;;;5033385;28;20407;-75
2022/01/23 07:35:00;;;;;;;2.27;1.93;;;5.40;99.90;;;;;;5033674;28;20425;-73
2022/01/23 07:37:25;;;;;;;3.87;2.80;;;5.30;99.90;;;;;;5033446;28;20168;-74
2022/01/23 07:39:51;;;;;;;4.90;3.13;;;5.40;99.90;;;;;;5016029;28;20203;-74
2022/01/23 07:42:16;;;;;;;3.10;2.80;;;5.30;99.90;;;;;;5033360;28;20681;-73
2022/01/23 07:44:42;;;;;;;4.33;3.60;;;5.30;99.90;;;;;;5033262;28;20183;-73
2022/01/23 07:47:07;;;;;;;5.93;3.60;;;5.30;99.90;;;;;;5033316;28;20172;-73
2022/01/23 07:49:33;;;;;;;2.97;2.47;;;5.30;99.90;;;;;;5033292;28;20203;-73
2022/01/23 07:52:01;;;;;;;3.00;2.63;;;5.30;99.90;;;;;;5033248;28;20180;-74
2022/01/23 07:54:26;;;;;;;3.50;2.73;;;5.40;99.90;;;;;;5032990;28;20204;-72
2022/01/23 07:56:52;;;;;;;2.70;2.17;;;5.40;99.90;;;;;;5033130;28;20422;-73
2022/01/23 07:59:17;;;;;;;3.13;2.57;;;5.50;99.90;;;;;;5033165;28;20182;-74
2022/01/23 08:01:43;;;;;;;2.77;2.30;;;5.40;99.90;;;;;;5033110;28;20176;-75
2022/01/23 08:04:08;;;;;;;4.53;2.47;;;5.40;99.90;;;;;;5015408;28;20227;-74
2022/01/23 08:06:43;;;;;;;4.07;3.20;;;5.40;99.90;;;;;;5033060;28;20514;-73
2022/01/23 08:09:09;;;;;;;6.07;2.80;;;5.40;99.90;;;;;;5032887;28;20191;-72
2022/01/23 08:11:34;;;;;;;2.97;2.30;;;5.40;99.90;;;;;;5031431;28;20409;-73
2022/01/23 08:14:00;;;;;;;4.00;2.07;;;5.50;99.90;;;;;;5052416;28;20448;-73
2022/01/23 08:16:25;;;;;;;4.63;4.20;;;5.60;99.90;;;;;;5048084;28;20175;-73
2022/01/23 08:18:51;;;;;;;5.97;2.57;;;5.70;99.90;;;;;;5032805;28;20484;-73
2022/01/23 08:21:16;;;;;;;2.70;1.80;;;5.70;99.90;;;;;;5020694;28;20234;-74
2022/01/23 08:23:42;;;;;;;2.93;1.93;;;5.70;99.90;;;;;;5014489;28;20174;-74
2022/01/23 08:26:08;;;;;;;3.27;2.27;;;5.60;99.90;;;;;;5014190;28;20172;-73
2022/01/23 08:28:34;;;;;;;3.40;2.10;;;5.70;99.90;;;;;;5013739;28;20196;-74
2022/01/23 08:31:00;;;;;;;3.70;2.80;;;5.70;99.90;;;;;;4996161;28;20993;-73
2022/01/23 08:33:25;;;;;;;3.03;1.90;;;5.70;99.90;;;;;;5012881;28;20494;-74
2022/01/23 08:35:53;;;;;;;7.27;3.63;;;5.70;99.90;;;;;;5012585;28;20220;-74
2022/01/23 08:38:19;;;;;;;4.97;2.97;;;5.80;99.90;;;;;;5012861;28;20172;-74
2022/01/23 08:40:48;;;;;;;2.70;2.43;;;5.90;99.90;;;;;;5012686;28;20399;-74
2022/01/23 08:43:16;;;;;;;4.90;3.93;;;5.80;99.90;;;;;;5012564;28;20200;-73
2022/01/23 08:45:42;;;;;;;3.03;2.80;;;5.90;99.90;;;;;;5012536;28;21034;-73
2022/01/23 08:48:08;;;;;;;3.37;2.03;;;5.90;99.90;;;;;;5012178;28;20497;-73
2022/01/23 08:50:34;;;;;;;3.37;1.57;;;5.90;99.90;;;;;;5012526;28;20457;-74
2022/01/23 08:52:59;;;;;;;2.60;2.40;;;6.00;99.90;;;;;;5012965;28;20408;-76
2022/01/23 08:55:25;;;;;;;3.67;1.87;;;6.10;99.90;;;;;;5012366;28;20557;-75
2022/01/23 08:57:50;;;;;;;2.97;2.67;;;6.00;99.90;;;;;;5012499;28;20176;-74
2022/01/23 09:00:18;;;;;;;4.27;2.30;;;5.90;99.90;;;;;;5012650;28;20691;-74
2022/01/23 09:02:44;;;;;;;2.47;1.40;;;5.90;99.90;;;;;;5012790;28;20175;-72
2022/01/23 09:05:09;;;;;;;3.57;1.80;;;5.90;99.90;;;;;;5012075;28;20431;-73
2022/01/23 09:07:35;;;;;;;2.13;1.67;;;5.90;99.90;;;;;;5012194;28;20274;-73
2022/01/23 09:10:03;;;;;;;5.10;2.13;;;6.00;99.90;;;;;;5012386;28;20164;-73
2022/01/23 09:15:03;;;;;;;2.70;2.50;;;6.00;99.90;;;;;;5033191;28;20426;-72
2022/01/23 09:17:28;;;;;;;3.00;2.33;;;6.10;99.90;;;;;;5034160;28;20486;-74
2022/01/23 09:19:54;;;;;;;3.40;2.20;;;6.10;99.90;;;;;;5033638;28;20405;-75
2022/01/23 09:22:20;;;;;;;1.90;1.37;;;6.10;99.90;;;;;;5033066;28;20247;-75
2022/01/23 09:24:45;;;;;;;4.63;1.83;;;6.20;99.90;;;;;;5032482;28;20191;-74
2022/01/23 09:27:18;;;;;;;2.50;2.30;;;6.20;99.90;;;;;;5034130;28;20246;-75
2022/01/23 09:29:48;;;;;;;3.70;2.33;;;6.10;99.90;;;;;;5033344;28;20206;-74
2022/01/23 09:32:16;;;;;;;3.60;2.00;;;6.30;99.90;;;;;;5032845;28;20405;-75
2022/01/23 09:34:42;;;;;;;2.50;2.30;;;6.20;99.90;;;;;;5032164;28;20461;-74
2022/01/23 09:37:15;;;;;;;2.80;1.90;;;6.30;99.90;;;;;;5033501;28;20398;-76
2022/01/23 09:39:45;;;;;;;3.47;2.17;;;6.30;99.90;;;;;;5034487;28;20448;-75
2022/01/23 09:42:18;;;;;;;2.20;1.40;;;6.40;99.90;;;;;;5035372;28;20406;-74
2022/01/23 09:44:53;;;;;;;3.47;2.30;;;6.50;99.90;;;;;;5037514;28;20486;-74
2022/01/23 09:47:22;;;;;;;2.50;1.80;;;6.40;99.90;;;;;;5037977;28;20402;-75
2022/01/23 09:49:50;;;;;;;4.50;3.03;;;6.40;99.90;;;;;;5034411;28;20807;-76
2022/01/23 09:52:16;;;;;;;2.80;2.23;;;6.50;99.90;;;;;;5034693;28;20725;-74
2022/01/23 09:54:45;;;;;;;4.00;2.80;;;6.40;99.90;;;;;;5034012;28;20445;-74
2022/01/23 09:57:11;;;;;;;3.00;2.20;;;6.60;99.90;;;;;;5034618;28;20732;-75
2022/01/23 09:59:38;;;;;;;1.43;1.27;;;6.50;99.90;;;;;;5035044;28;20398;-75
2022/01/23 10:02:05;;;;;;;2.53;1.33;;;6.50;99.90;;;;;;5037999;28;20766;-75
2022/01/23 10:04:30;;;;;;;1.87;1.70;;;6.60;99.90;;;;;;5038125;28;20425;-75
2022/01/23 10:06:57;;;;;;;2.60;1.87;;;6.60;99.90;;;;;;5037788;28;20403;-73
2022/01/23 10:09:25;;;;;;;4.57;2.47;;;6.80;99.90;;;;;;5037834;28;20555;-73
2022/01/23 10:11:51;;;;;;;3.73;2.77;;;6.80;99.90;;;;;;5038104;28;20398;-75
2022/01/23 10:14:18;;;;;;;2.53;1.10;;;6.70;99.90;;;;;;5038258;28;20416;-74
2022/01/23 10:16:45;;;;;;;1.87;1.37;;;6.50;99.90;;;;;;5038358;28;20199;-74
2022/01/23 10:19:11;;;;;;;4.03;2.47;;;6.60;99.90;;;;;;5037981;28;20460;-74
2022/01/23 10:21:40;;;;;;;2.03;1.77;;;6.50;99.90;;;;;;5043952;28;20414;-74
2022/01/23 10:24:07;;;;;;;2.30;1.57;;;6.70;99.90;;;;;;5037777;28;20426;-75
2022/01/23 10:26:54;;;;;;;2.13;1.80;;;6.70;99.90;;;;;;5035644;28;20441;-75
2022/01/23 10:29:30;;;;;;;2.77;1.60;;;6.90;99.90;;;;;;5034645;28;20449;-73
2022/01/23 10:32:04;;;;;;;2.57;2.37;;;7.00;99.90;;;;;;5023786;28;20422;-72
2022/01/23 10:34:57;;;;;;;1.53;1.43;;;7.00;99.90;;;;;;5016329;28;20424;-74
2022/01/23 10:37:32;;;;;;;3.23;1.97;;;6.80;99.90;;;;;;5016652;28;20495;-74
2022/01/23 10:39:59;;;;;;;2.70;2.30;;;6.80;99.90;;;;;;5016710;28;20409;-73
2022/01/23 10:48:36;;;;;;;3.50;3.13;;;6.70;99.90;;;;;;5015830;28;20864;-74
2022/01/23 10:51:24;;;;;;;3.80;2.60;;;6.70;99.90;;;;;;5016181;28;20396;-74
2022/01/23 10:53:58;;;;;;;4.03;2.43;;;7.00;99.90;;;;;;5015565;28;20762;-73
2022/01/23 10:56:26;;;;;;;6.70;2.57;;;6.90;99.90;;;;;;5016523;28;20862;-73
2022/01/23 10:59:10;;;;;;;3.87;2.27;;;7.10;99.90;;;;;;5016150;28;20407;-73
2022/01/23 11:01:38;;;;;;;5.23;2.70;;;7.20;99.90;;;;;;5016048;28;20514;-73
2022/01/23 11:04:08;;;;;;;4.30;1.87;;;7.20;99.90;;;;;;5015656;28;20430;-73
2022/01/23 11:06:59;;;;;;;2.50;1.90;;;7.10;99.90;;;;;;4998622;28;20415;-74
2022/01/23 11:09:28;;;;;;;3.07;1.43;;;6.90;99.90;;;;;;5015943;28;20454;-74
2022/01/23 11:12:01;;;;;;;2.50;2.00;;;7.10;99.90;;;;;;5015917;28;20399;-73
2022/01/23 11:17:25;;;;;;;2.23;1.77;;;7.00;99.90;;;;;;5017749;28;20505;-73
2022/01/23 11:20:01;;;;;;;2.93;2.10;;;6.80;99.90;;;;;;5015161;28;20414;-73
2022/01/23 11:22:30;;;;;;;6.80;2.50;;;6.90;99.90;;;;;;5014452;28;20465;-71
2022/01/23 11:25:03;;;;;;;3.00;2.73;;;6.80;99.90;;;;;;5014513;28;20423;-73
2022/01/23 11:27:35;;;;;;;2.50;1.97;;;6.90;99.90;;;;;;5014313;28;20936;-74
2022/01/23 11:30:09;;;;;;;1.50;1.40;;;6.90;99.90;;;;;;5014304;28;20913;-73
2022/01/23 11:32:38;;;;;;;2.13;1.50;;;7.00;99.90;;;;;;5014115;28;20776;-74
2022/01/23 11:35:14;;;;;;;1.40;1.30;;;7.00;99.90;;;;;;5013321;28;20431;-73
2022/01/23 11:37:48;;;;;;;2.77;1.23;;;7.10;99.90;;;;;;5013964;28;20421;-73
2022/01/23 11:54:05;;;;;;;2.30;1.67;;;7.10;99.90;;;;;;5013488;28;20494;-73
2022/01/23 11:56:35;;;;;;;3.20;1.93;;;7.20;99.90;;;;;;4996423;28;20497;-73
2022/01/23 11:59:10;;;;;;;2.53;1.83;;;7.20;99.90;;;;;;5013349;28;20403;-73
2022/01/23 12:01:38;;;;;;;4.80;1.50;;;7.40;99.90;;;;;;5013491;28;20442;-72
2022/01/23 12:04:07;;;;;;;3.30;1.90;;;7.50;99.90;;;;;;5013145;28;20930;-74
2022/01/23 12:06:39;;;;;;;1.90;1.60;;;7.50;99.90;;;;;;5013771;28;20764;-74
2022/01/23 12:09:18;;;;;;;2.33;1.23;;;7.50;99.90;;;;;;5013219;28;20547;-74
2022/01/23 12:17:17;;;;;;;2.10;1.90;;;7.50;99.90;;;;;;5013373;28;20410;-74
2022/01/23 12:19:46;;;;;;;2.33;1.73;;;7.50;99.90;;;;;;5013235;28;20165;-75
2022/01/23 12:22:43;;;;;;;1.10;1.00;;;7.40;99.90;;;;;;5013231;28;20416;-74
2022/01/23 12:25:21;;;;;;;1.23;1.13;;;7.20;99.90;;;;;;5000486;28;20443;-74
2022/01/23 12:28:09;;;;;;;1.23;1.23;;;7.10;99.90;;;;;;5012982;28;20442;-74
2022/01/23 12:30:35;;;;;;;1.47;1.07;;;7.20;99.90;;;;;;5013060;28;20886;-74
2022/01/23 12:33:19;;;;;;;1.57;1.13;;;7.30;99.90;;;;;;4995153;28;20438;-73
2022/01/23 12:35:48;;;;;;;1.50;1.10;;;7.40;99.90;;;;;;5012864;28;20650;-73
2022/01/23 12:38:14;;;;;;;2.47;1.63;;;7.20;99.90;;;;;;5021133;28;20433;-73
2022/01/23 12:40:47;;;;;;;1.33;1.20;;;7.30;99.90;;;;;;5038021;28;20438;-74
2022/01/23 12:43:15;;;;;;;2.80;1.00;;;7.10;99.90;;;;;;5035681;28;20407;-74
2022/01/23 12:46:02;;;;;;;3.10;1.87;;;7.20;99.90;;;;;;5029114;28;20522;-74
2022/01/23 12:48:28;;;;;;;1.80;1.30;;;7.10;99.90;;;;;;5032005;28;20446;-74
2022/01/23 12:51:00;;;;;;;1.10;1.00;;;7.20;99.90;;;;;;5032236;28;20540;-75
2022/01/23 12:53:58;;;;;;;1.40;1.10;;;7.20;99.90;;;;;;5031989;28;20881;-74
2022/01/23 12:56:41;;;;;;;1.00;1.00;;;7.30;99.90;;;;;;5031594;28;20418;-74
2022/01/23 12:59:10;;;;;;;0.93;0.83;;;7.20;99.90;;;;;;5032379;28;20436;-75
2022/01/23 13:01:38;;;;;;;0.77;0.77;;;7.30;99.90;;;;;;5032105;28;20399;-75
2022/01/23 13:04:05;;;;;;;2.50;1.43;;;7.20;99.90;;;;;;5032129;28;20433;-75
2022/01/23 13:06:50;;;;;;;1.80;1.47;;;7.30;99.90;;;;;;5031813;28;20410;-75
2022/01/23 13:09:29;;;;;;;1.87;1.10;;;7.10;99.90;;;;;;5031902;28;20461;-74
2022/01/23 13:26:23;;;;;;;1.37;1.23;;;7.20;99.90;;;;;;5030763;28;20406;-75
2022/01/23 13:30:55;;;;;;;3.37;1.90;;;7.30;99.90;;;;;;5031819;28;20480;-74
2022/01/23 13:33:25;;;;;;;2.03;1.53;;;7.30;99.90;;;;;;5031833;28;20402;-74
2022/01/23 13:35:52;;;;;;;2.57;2.03;;;7.30;99.90;;;;;;5034160;28;20484;-74
2022/01/23 13:38:20;;;;;;;2.27;1.43;;;7.30;99.90;;;;;;5035944;28;20414;-74
2022/01/23 13:40:56;;;;;;;2.17;1.10;;;7.30;99.90;;;;;;5016029;28;20407;-74
2022/01/23 13:48:01;;;;;;;1.13;1.03;;;7.30;99.90;;;;;;5016316;28;20422;-73
2022/01/23 13:52:34;;;;;;;1.53;1.13;;;7.40;99.90;;;;;;5035542;28;20503;-74
2022/01/23 13:58:09;;;;;;;2.20;2.00;;;7.30;99.90;;;;;;5035934;28;20413;-74
2022/01/23 14:00:33;;;;;;;1.53;1.43;;;7.30;99.90;;;;;;5035319;28;20897;-74
2022/01/23 14:02:58;;;;;;;1.10;1.00;;;7.40;99.90;;;;;;5035221;28;20460;-74
2022/01/23 14:05:30;;;;;;;3.07;1.33;;;7.40;99.90;;;;;;5035190;28;20691;-74
2022/01/23 14:07:59;;;;;;;2.60;1.13;;;7.40;99.90;;;;;;5033997;28;20282;-74
2022/01/23 14:10:32;;;;;;;2.17;1.67;;;7.40;99.90;;;;;;5035554;28;20414;-75
2022/01/23 14:13:14;;;;;;;3.87;1.30;;;7.30;99.90;;;;;;5035431;28;20406;-74
2022/01/23 14:15:46;;;;;;;3.30;1.40;;;7.20;99.90;;;;;;5035340;28;20429;-74
2022/01/23 14:18:17;;;;;;;2.70;1.83;;;7.20;99.90;;;;;;5035105;28;20434;-74
2022/01/23 14:20:53;;;;;;;1.37;1.00;;;7.30;99.90;;;;;;5034892;28;20971;-75
2022/01/23 14:23:22;;;;;;;1.50;1.30;;;7.20;99.90;;;;;;5034847;28;20417;-74
2022/01/23 14:25:50;;;;;;;1.30;1.20;;;7.10;99.90;;;;;;5034891;28;20433;-73
2022/01/23 14:28:21;;;;;;;1.50;1.33;;;7.10;99.90;;;;;;5034850;28;20952;-74
2022/01/23 14:30:50;;;;;;;1.30;1.20;;;7.10;99.90;;;;;;5034797;28;20873;-74
2022/01/23 14:33:23;;;;;;;1.47;1.20;;;7.10;99.90;;;;;;5037013;28;20413;-74
2022/01/23 14:35:50;;;;;;;2.53;1.50;;;7.20;99.90;;;;;;5038636;28;20430;-74
2022/01/23 14:38:24;;;;;;;1.20;1.10;;;7.20;99.90;;;;;;5034799;28;20481;-73
2022/01/23 14:41:02;;;;;;;1.00;0.90;;;7.10;99.90;;;;;;5034597;28;20414;-73
2022/01/23 14:43:34;;;;;;;1.70;1.30;;;7.10;99.90;;;;;;5034483;28;20402;-74
2022/01/23 14:46:03;;;;;;;1.20;1.10;;;7.00;99.90;;;;;;5027543;28;20447;-74
2022/01/23 14:48:29;;;;;;;1.40;1.30;;;7.00;99.90;;;;;;5016365;28;20489;-74
2022/01/23 14:50:55;;;;;;;3.00;1.17;;;7.00;99.90;;;;;;5014849;28;20471;-73
2022/01/23 14:53:24;;;;;;;1.43;1.33;;;7.00;99.90;;;;;;5014774;28;20164;-74
2022/01/23 14:55:55;;;;;;;1.60;1.10;;;7.00;99.90;;;;;;5014228;28;20542;-74
2022/01/23 14:58:22;;;;;;;1.17;1.10;;;6.90;99.90;;;;;;5014465;28;20407;-74
2022/01/23 15:00:56;;;;;;;2.00;1.30;;;7.00;99.90;;;;;;5014643;28;20404;-75
2022/01/23 15:03:23;;;;;;;0.90;0.90;;;7.00;99.90;;;;;;5014508;28;20415;-74
2022/01/23 15:05:49;;;;;;;0.80;0.63;;;7.00;99.90;;;;;;5029392;28;20438;-74
2022/01/23 15:08:15;;;;;;;1.37;0.77;;;6.90;99.90;;;;;;5031036;28;20813;-74
2022/01/23 15:10:44;;;;;;;1.90;1.10;;;6.90;99.90;;;;;;5034081;28;20645;-75
2022/01/23 15:13:11;;;;;;;0.70;0.70;;;6.90;99.90;;;;;;5033876;28;20434;-74
2022/01/23 15:15:37;;;;;;;0.80;0.80;;;6.90;99.90;;;;;;5033893;28;20493;-75
2022/01/23 15:18:03;;;;;;;1.33;1.23;;;6.90;99.90;;;;;;5033937;28;20446;-74
2022/01/23 15:20:31;;;;;;;1.67;1.10;;;6.90;99.90;;;;;;5027408;28;20175;-75
2022/01/23 15:22:57;;;;;;;0.97;0.87;;;6.90;99.90;;;;;;5033162;28;20431;-74
2022/01/23 15:25:24;;;;;;;0.80;0.80;;;6.70;99.90;;;;;;5043690;28;20441;-73
2022/01/23 15:27:50;;;;;;;1.63;1.10;;;6.70;99.90;;;;;;5035733;28;20243;-74
2022/01/23 15:30:16;;;;;;;2.70;1.33;;;6.70;99.90;;;;;;5029569;28;20414;-74
2022/01/23 15:32:45;;;;;;;1.73;1.13;;;6.70;99.90;;;;;;5047078;28;20191;-73
2022/01/23 15:35:12;;;;;;;1.57;1.20;;;6.70;99.90;;;;;;5033064;28;20434;-74
2022/01/23 15:37:38;;;;;;;2.23;1.10;;;6.70;99.90;;;;;;5027060;28;20939;-74
2022/01/23 15:40:06;;;;;;;1.40;1.20;;;6.70;99.90;;;;;;5038593;28;20428;-73
2022/01/23 15:42:31;;;;;;;4.10;1.40;;;6.70;99.90;;;;;;5039249;28;20473;-74
2022/01/23 15:44:57;;;;;;;2.93;1.40;;;6.80;99.90;;;;;;5032719;28;20438;-74
2022/01/23 15:47:22;;;;;;;2.00;1.57;;;6.80;99.90;;;;;;5033202;28;20175;-74
2022/01/23 15:49:48;;;;;;;0.70;0.70;;;6.80;99.90;;;;;;5033006;28;20623;-74
2022/01/23 15:52:13;;;;;;;1.27;0.97;;;6.70;99.90;;;;;;5033154;28;20360;-73
2022/01/23 15:54:39;;;;;;;1.20;0.97;;;6.70;99.90;;;;;;5029329;28;20222;-73
2022/01/23 15:57:06;;;;;;;1.43;1.00;;;6.70;99.90;;;;;;5038361;28;20645;-73
2022/01/23 15:59:32;;;;;;;1.53;1.07;;;6.70;99.90;;;;;;5035962;28;20176;-73
2022/01/23 16:01:58;;;;;;;4.70;1.53;;;6.70;99.90;;;;;;5032692;28;20444;-74
2022/01/23 16:04:24;;;;;;;1.07;0.93;;;6.70;99.90;;;;;;5032787;28;20450;-74